Time;durP1;ratioP1;P1;durP2;ratioP2;P2;SDS_P1;SDS_P2;PMS_P1;PMS_P2;Temp;Humidity;BMP_temperature;BMP_pressure;BME280_temperature;BME280_humidity;BME280_pressure;Samples;Min_cycle;Max_cycle;Signal;HPM_P1;HPM_P2
2022/11/21 00:01:28;;;;;;;26.55;14.20;;;;;;;;;;5014748;28;20528;-77
2022/11/21 00:03:54;;;;;;;27.60;14.27;;;;;;;;;;5014340;28;20034;-77
2022/11/21 00:06:20;;;;;;;24.98;14.45;;;;;;;;;;5013235;28;20080;-77
2022/11/21 00:08:46;;;;;;;28.05;15.32;;;;;;;;;;5006823;28;20437;-77
2022/11/21 00:11:12;;;;;;;25.00;15.05;;;;;;;;;;5012767;28;20539;-77
2022/11/21 00:13:38;;;;;;;23.73;14.55;;;;;;;;;;5007817;28;20034;-77
2022/11/21 00:16:12;;;;;;;22.88;14.18;;;;;;;;;;4994302;28;20034;-77
2022/11/21 00:18:39;;;;;;;26.85;14.70;;;;;;;;;;4999477;28;20056;-77
2022/11/21 00:21:06;;;;;;;26.42;14.20;;;;;;;;;;5006741;28;20026;-77
2022/11/21 00:23:32;;;;;;;26.67;15.82;;;;;;;;;;5010461;28;20027;-77
2022/11/21 00:25:58;;;;;;;25.20;14.70;;;;;;;;;;4994925;28;20469;-77
2022/11/21 00:28:24;;;;;;;27.15;15.63;;;;;;;;;;4994996;28;20113;-77
2022/11/21 00:30:50;;;;;;;25.42;14.18;;;;;;;;;;4995025;28;20030;-77
2022/11/21 00:33:16;;;;;;;27.40;15.75;;;;;;;;;;4994853;28;20031;-77
2022/11/21 00:35:42;;;;;;;29.25;16.13;;;;;;;;;;4995191;28;20034;-77
2022/11/21 00:38:08;;;;;;;26.35;14.85;;;;;;;;;;5001596;28;20029;-77
2022/11/21 00:40:34;;;;;;;26.63;14.95;;;;;;;;;;4995665;28;20362;-77
2022/11/21 00:43:00;;;;;;;26.52;14.55;;;;;;;;;;4994966;28;20053;-77
2022/11/21 00:45:26;;;;;;;31.08;15.65;;;;;;;;;;4995042;28;20489;-77
2022/11/21 00:47:52;;;;;;;28.35;14.75;;;;;;;;;;5000234;28;20033;-76
2022/11/21 00:50:18;;;;;;;27.05;14.32;;;;;;;;;;4994794;28;20033;-77
2022/11/21 00:52:44;;;;;;;25.63;15.20;;;;;;;;;;4994583;28;20026;-77
2022/11/21 00:55:10;;;;;;;27.13;14.88;;;;;;;;;;4994586;28;20022;-77
2022/11/21 00:57:36;;;;;;;25.00;14.63;;;;;;;;;;5001998;28;20041;-77
2022/11/21 01:00:02;;;;;;;25.85;14.27;;;;;;;;;;5004961;28;20108;-77
2022/11/21 01:02:28;;;;;;;25.13;14.18;;;;;;;;;;5013589;28;20026;-77
2022/11/21 01:04:54;;;;;;;28.25;15.13;;;;;;;;;;4997490;28;20436;-77
2022/11/21 01:07:20;;;;;;;28.02;15.98;;;;;;;;;;5005731;28;20029;-77
2022/11/21 01:09:46;;;;;;;27.75;16.48;;;;;;;;;;5013070;28;20034;-77
2022/11/21 01:12:12;;;;;;;26.95;14.88;;;;;;;;;;5006931;28;20072;-77
2022/11/21 01:14:38;;;;;;;26.65;15.95;;;;;;;;;;4994303;28;20088;-77
2022/11/21 01:17:04;;;;;;;25.77;14.40;;;;;;;;;;5003515;28;20030;-77
2022/11/21 01:19:30;;;;;;;24.48;14.00;;;;;;;;;;5012130;28;20032;-77
2022/11/21 01:21:56;;;;;;;29.95;15.00;;;;;;;;;;4995926;28;20532;-77
2022/11/21 01:24:22;;;;;;;28.75;15.35;;;;;;;;;;4994048;28;20104;-77
2022/11/21 01:26:49;;;;;;;25.88;15.32;;;;;;;;;;4993601;28;20405;-77
2022/11/21 01:29:15;;;;;;;28.90;16.25;;;;;;;;;;4994101;28;20109;-77
2022/11/21 01:31:41;;;;;;;26.95;15.95;;;;;;;;;;4994041;28;20035;-77
2022/11/21 01:34:07;;;;;;;24.52;14.93;;;;;;;;;;4993953;28;20041;-77
2022/11/21 01:36:33;;;;;;;28.15;15.43;;;;;;;;;;5001281;28;20452;-77
2022/11/21 01:39:02;;;;;;;29.45;15.63;;;;;;;;;;5001036;28;20104;-77
2022/11/21 01:41:32;;;;;;;26.98;14.82;;;;;;;;;;5005619;28;20026;-77
2022/11/21 01:43:58;;;;;;;27.50;16.33;;;;;;;;;;4997408;28;20107;-76
2022/11/21 01:46:24;;;;;;;26.33;14.93;;;;;;;;;;5012586;28;20347;-77
2022/11/21 01:49:03;;;;;;;29.23;15.93;;;;;;;;;;4998290;28;20034;-77
2022/11/21 01:51:33;;;;;;;32.05;17.15;;;;;;;;;;4993730;28;20018;-77
2022/11/21 01:53:59;;;;;;;;;;;;;;;;;;4993892;28;20041;-77
2022/11/21 01:56:26;;;;;;;31.17;16.55;;;;;;;;;;5003206;28;19917;-77
2022/11/21 01:58:52;;;;;;;30.50;15.90;;;;;;;;;;5004774;28;20042;-77
2022/11/21 02:01:19;;;;;;;27.05;15.00;;;;;;;;;;5004449;28;20030;-77
2022/11/21 02:03:46;;;;;;;29.17;15.80;;;;;;;;;;5007728;28;20505;-77
2022/11/21 02:06:12;;;;;;;28.38;16.08;;;;;;;;;;4991409;28;20105;-77
2022/11/21 02:08:38;;;;;;;29.88;15.40;;;;;;;;;;4993651;28;20050;-77
2022/11/21 02:11:23;;;;;;;28.10;15.23;;;;;;;;;;4993310;28;20038;-77
2022/11/21 02:13:49;;;;;;;31.67;16.30;;;;;;;;;;4997502;28;20378;-77
2022/11/21 02:16:15;;;;;;;26.30;15.02;;;;;;;;;;5012342;28;20436;-77
2022/11/21 02:18:41;;;;;;;29.65;15.57;;;;;;;;;;5008884;28;20046;-77
2022/11/21 02:21:13;;;;;;;28.38;15.10;;;;;;;;;;4992919;28;20026;-77
2022/11/21 02:23:53;;;;;;;30.67;15.88;;;;;;;;;;5003642;28;20077;-77
2022/11/21 02:26:19;;;;;;;27.42;14.88;;;;;;;;;;5012379;28;20030;-77
2022/11/21 02:28:45;;;;;;;31.63;16.92;;;;;;;;;;5004240;28;20034;-77
2022/11/21 02:31:11;;;;;;;31.08;16.58;;;;;;;;;;5012321;28;20106;-77
2022/11/21 02:33:37;;;;;;;31.92;16.25;;;;;;;;;;5002392;28;20607;-77
2022/11/21 02:36:04;;;;;;;29.83;16.40;;;;;;;;;;4993989;28;20031;-77
2022/11/21 02:38:31;;;;;;;28.30;15.20;;;;;;;;;;4995925;28;20038;-77
2022/11/21 02:41:04;;;;;;;28.48;15.85;;;;;;;;;;5003950;28;20034;-77
2022/11/21 02:43:32;;;;;;;30.23;17.08;;;;;;;;;;4996960;28;20037;-77
2022/11/21 02:45:58;;;;;;;26.65;14.80;;;;;;;;;;4996799;28;20105;-77
2022/11/21 02:48:24;;;;;;;30.00;15.60;;;;;;;;;;4996952;28;20081;-77
2022/11/21 02:50:50;;;;;;;29.67;15.52;;;;;;;;;;4999566;28;20071;-77
2022/11/21 02:53:17;;;;;;;29.88;15.65;;;;;;;;;;5002486;28;20027;-77
2022/11/21 02:55:44;;;;;;;28.55;15.60;;;;;;;;;;4996856;28;20117;-76
2022/11/21 02:58:10;;;;;;;27.58;16.00;;;;;;;;;;5000722;28;20029;-76
2022/11/21 03:00:38;;;;;;;28.05;15.45;;;;;;;;;;5007589;28;20034;-77
2022/11/21 03:03:05;;;;;;;28.25;15.18;;;;;;;;;;4996585;28;20031;-77
2022/11/21 03:05:31;;;;;;;30.60;15.70;;;;;;;;;;4996792;28;20022;-77
2022/11/21 03:07:57;;;;;;;30.95;16.67;;;;;;;;;;4996120;28;20114;-77
2022/11/21 03:10:23;;;;;;;28.65;15.35;;;;;;;;;;4996598;28;20043;-77
2022/11/21 03:12:49;;;;;;;26.80;15.38;;;;;;;;;;5003981;28;20030;-77
2022/11/21 03:15:15;;;;;;;30.70;16.45;;;;;;;;;;4996121;28;20030;-77
2022/11/21 03:17:42;;;;;;;29.13;16.35;;;;;;;;;;4995643;28;20064;-77
2022/11/21 03:20:08;;;;;;;29.50;15.43;;;;;;;;;;4996295;28;20022;-77
2022/11/21 03:22:35;;;;;;;31.30;16.70;;;;;;;;;;4996125;28;20018;-77
2022/11/21 03:25:01;;;;;;;28.65;16.05;;;;;;;;;;4996140;28;20034;-77
2022/11/21 03:27:27;;;;;;;29.35;15.77;;;;;;;;;;4996011;28;20030;-77
2022/11/21 03:29:53;;;;;;;33.72;18.48;;;;;;;;;;4996101;28;20034;-77
2022/11/21 03:32:19;;;;;;;34.10;18.23;;;;;;;;;;5015042;28;20034;-77
2022/11/21 03:34:45;;;;;;;32.00;16.80;;;;;;;;;;5000041;28;20118;-77
2022/11/21 03:37:11;;;;;;;30.52;17.27;;;;;;;;;;4995618;28;20113;-77
2022/11/21 03:39:37;;;;;;;34.42;17.35;;;;;;;;;;5003642;28;20113;-77
2022/11/21 03:42:03;;;;;;;30.38;16.38;;;;;;;;;;5003668;28;20027;-77
2022/11/21 03:44:29;;;;;;;32.00;17.17;;;;;;;;;;4995700;28;20077;-77
2022/11/21 03:46:55;;;;;;;33.65;16.83;;;;;;;;;;4996002;28;20049;-76
2022/11/21 03:49:21;;;;;;;31.83;16.75;;;;;;;;;;5000813;28;20117;-76
2022/11/21 03:51:47;;;;;;;31.60;16.35;;;;;;;;;;5007090;28;20121;-76
2022/11/21 03:54:13;;;;;;;32.45;15.98;;;;;;;;;;5005373;28;20040;-76
2022/11/21 03:56:39;;;;;;;30.92;15.45;;;;;;;;;;5008282;28;20030;-77
2022/11/21 03:59:05;;;;;;;32.97;16.92;;;;;;;;;;4998786;28;20034;-76
2022/11/21 04:01:32;;;;;;;32.30;16.88;;;;;;;;;;4995259;28;20034;-77
2022/11/21 04:03:58;;;;;;;32.90;16.95;;;;;;;;;;4995592;28;20523;-77
2022/11/21 04:06:24;;;;;;;30.40;15.63;;;;;;;;;;4995672;28;20077;-77
2022/11/21 04:08:50;;;;;;;30.67;16.35;;;;;;;;;;4999269;28;20038;-76
2022/11/21 04:11:16;;;;;;;28.60;16.33;;;;;;;;;;4997036;28;20482;-76
2022/11/21 04:13:42;;;;;;;33.50;17.15;;;;;;;;;;4995443;28;20031;-76
2022/11/21 04:16:09;;;;;;;32.15;17.40;;;;;;;;;;4995314;28;20026;-77
2022/11/21 04:18:35;;;;;;;27.85;15.60;;;;;;;;;;4996958;28;20101;-76
2022/11/21 04:21:02;;;;;;;32.33;15.75;;;;;;;;;;5014481;28;20033;-77
2022/11/21 04:23:28;;;;;;;30.77;16.17;;;;;;;;;;4996373;28;20026;-77
2022/11/21 04:25:54;;;;;;;36.47;18.48;;;;;;;;;;4994993;28;20145;-77
2022/11/21 04:28:20;;;;;;;36.35;16.40;;;;;;;;;;5002909;28;20056;-77
2022/11/21 04:30:47;;;;;;;31.30;15.60;;;;;;;;;;5010462;28;20029;-77
2022/11/21 04:33:13;;;;;;;29.33;15.50;;;;;;;;;;5010192;28;20064;-77
2022/11/21 04:35:39;;;;;;;34.65;16.70;;;;;;;;;;5011672;28;20635;-77
2022/11/21 04:38:06;;;;;;;29.70;15.95;;;;;;;;;;5001435;28;20493;-77
2022/11/21 04:40:32;;;;;;;32.40;16.25;;;;;;;;;;4994480;28;20030;-76
2022/11/21 04:42:58;;;;;;;35.83;17.83;;;;;;;;;;5004547;28;20388;-77
2022/11/21 04:45:24;;;;;;;32.15;16.00;;;;;;;;;;5005497;28;20034;-77
2022/11/21 04:47:50;;;;;;;31.95;15.93;;;;;;;;;;5011250;28;20026;-76
2022/11/21 04:50:16;;;;;;;36.45;17.08;;;;;;;;;;5006831;28;20109;-77
2022/11/21 04:52:43;;;;;;;32.58;17.38;;;;;;;;;;5002471;28;20041;-77
2022/11/21 04:55:09;;;;;;;32.58;17.20;;;;;;;;;;4994362;28;20026;-77
2022/11/21 04:57:35;;;;;;;34.17;17.52;;;;;;;;;;5010078;28;20116;-77
2022/11/21 05:00:01;;;;;;;41.92;17.75;;;;;;;;;;4994160;28;20072;-76
2022/11/21 05:02:27;;;;;;;39.60;18.00;;;;;;;;;;5009807;28;20128;-77
2022/11/21 05:04:53;;;;;;;40.53;18.30;;;;;;;;;;5005463;28;20029;-77
2022/11/21 05:07:19;;;;;;;33.08;16.25;;;;;;;;;;5013684;28;20041;-77
2022/11/21 05:09:45;;;;;;;37.70;17.95;;;;;;;;;;5013111;28;20029;-77
2022/11/21 05:14:55;;;;;;;44.05;19.13;;;;;;;;;;4994676;28;20041;-76
2022/11/21 05:17:21;;;;;;;41.50;19.70;;;;;;;;;;4993885;28;20050;-77
2022/11/21 05:19:47;;;;;;;40.13;17.98;;;;;;;;;;4994499;28;20508;-77
2022/11/21 05:22:13;;;;;;;40.10;17.55;;;;;;;;;;4995186;28;20030;-77
2022/11/21 05:24:39;;;;;;;38.50;17.08;;;;;;;;;;4993699;28;20034;-77
2022/11/21 05:27:05;;;;;;;37.83;15.90;;;;;;;;;;4998146;28;20507;-77
2022/11/21 05:29:32;;;;;;;42.55;16.90;;;;;;;;;;4995898;28;20022;-77
2022/11/21 05:31:57;;;;;;;39.25;17.58;;;;;;;;;;4993760;28;20022;-77
2022/11/21 05:34:23;;;;;;;46.45;18.15;;;;;;;;;;4994052;28;20400;-77
2022/11/21 05:36:55;;;;;;;40.00;16.45;;;;;;;;;;4997172;28;20065;-77
2022/11/21 05:39:21;;;;;;;40.22;15.65;;;;;;;;;;5003355;28;20026;-77
2022/11/21 05:41:47;;;;;;;38.67;15.35;;;;;;;;;;5001206;28;20089;-76
2022/11/21 05:44:13;;;;;;;41.05;16.33;;;;;;;;;;5003245;28;20025;-76
2022/11/21 05:46:39;;;;;;;45.10;16.83;;;;;;;;;;5001463;28;20389;-76
2022/11/21 05:49:05;;;;;;;42.33;16.10;;;;;;;;;;5001422;28;20025;-76
2022/11/21 05:51:32;;;;;;;43.75;16.95;;;;;;;;;;5001605;28;20037;-76
2022/11/21 05:53:58;;;;;;;38.38;16.42;;;;;;;;;;4999987;28;20050;-76
2022/11/21 05:56:24;;;;;;;40.22;15.88;;;;;;;;;;4995616;28;20031;-76
2022/11/21 05:58:50;;;;;;;36.70;15.77;;;;;;;;;;4995283;28;20088;-76
2022/11/21 06:03:25;;;;;;;36.45;15.40;;;;;;;;;;4993543;28;20109;-76
2022/11/21 06:04:03;;;;;;;50.78;16.75;;;;;;;;;;4993179;28;20485;-77
2022/11/21 06:06:29;;;;;;;48.10;15.45;;;;;;;;;;4998655;28;20418;-77
2022/11/21 06:08:56;;;;;;;51.60;14.70;;;;;;;;;;5004318;28;20140;-77
2022/11/21 06:11:22;;;;;;;51.75;14.65;;;;;;;;;;5011597;28;20122;-77
2022/11/21 06:13:48;;;;;;;38.67;15.18;;;;;;;;;;5016704;28;20041;-77
2022/11/21 06:16:18;;;;;;;50.33;15.60;;;;;;;;;;4999650;28;20031;-77
2022/11/21 06:18:45;;;;;;;49.67;16.75;;;;;;;;;;5000178;28;20053;-77
2022/11/21 06:21:18;;;;;;;45.20;17.60;;;;;;;;;;4996533;28;20417;-77
2022/11/21 06:23:44;;;;;;;51.88;16.00;;;;;;;;;;5000393;28;20457;-77
2022/11/21 06:26:15;;;;;;;42.45;14.85;;;;;;;;;;5013412;28;20104;-78
2022/11/21 06:28:42;;;;;;;39.83;15.23;;;;;;;;;;4997722;28;20026;-77
2022/11/21 06:31:08;;;;;;;39.80;15.75;;;;;;;;;;5002149;28;20389;-78
2022/11/21 06:33:34;;;;;;;65.00;15.13;;;;;;;;;;5003722;28;20503;-78
2022/11/21 06:36:03;;;;;;;62.30;13.63;;;;;;;;;;4999397;28;20065;-78
2022/11/21 06:38:29;;;;;;;64.30;14.65;;;;;;;;;;5008141;28;20113;-78
2022/11/21 06:40:55;;;;;;;49.95;13.00;;;;;;;;;;5003525;28;20484;-78
2022/11/21 06:43:21;;;;;;;33.70;13.23;;;;;;;;;;5009362;28;20030;-78
2022/11/21 06:45:47;;;;;;;33.28;13.55;;;;;;;;;;5008771;28;20440;-78
2022/11/21 06:48:13;;;;;;;33.70;11.52;;;;;;;;;;5011857;28;20040;-78
2022/11/21 06:50:40;;;;;;;43.63;12.38;;;;;;;;;;5011756;28;20495;-78
2022/11/21 06:53:06;;;;;;;44.00;12.43;;;;;;;;;;5001174;28;20030;-79
2022/11/21 06:55:32;;;;;;;32.88;11.70;;;;;;;;;;4999162;28;20101;-79
2022/11/21 06:57:58;;;;;;;38.38;11.85;;;;;;;;;;5010142;28;20130;-78
2022/11/21 07:00:27;;;;;;;88.75;15.32;;;;;;;;;;4994106;28;20065;-78
2022/11/21 07:02:54;;;;;;;34.30;12.57;;;;;;;;;;4997660;28;20040;-79
2022/11/21 07:05:20;;;;;;;42.00;11.90;;;;;;;;;;5009032;28;20028;-79
2022/11/21 07:07:46;;;;;;;42.58;11.80;;;;;;;;;;4999514;28;20485;-79
2022/11/21 07:10:12;;;;;;;48.72;12.75;;;;;;;;;;5006015;28;20026;-79
2022/11/21 07:15:22;;;;;;;37.28;11.63;;;;;;;;;;5001281;28;20060;-79
2022/11/21 07:17:48;;;;;;;46.53;12.93;;;;;;;;;;5012555;28;20432;-79
2022/11/21 07:20:15;;;;;;;34.05;10.88;;;;;;;;;;5001351;28;20061;-79
2022/11/21 07:22:41;;;;;;;57.25;11.85;;;;;;;;;;5001199;28;20096;-79
2022/11/21 07:25:07;;;;;;;34.38;11.30;;;;;;;;;;5004568;28;20513;-79
2022/11/21 07:27:33;;;;;;;48.83;15.32;;;;;;;;;;5015401;28;20037;-79
2022/11/21 07:29:59;;;;;;;42.33;12.25;;;;;;;;;;5007016;28;20034;-79
2022/11/21 07:32:25;;;;;;;28.48;10.50;;;;;;;;;;5009570;28;20025;-79
2022/11/21 07:34:51;;;;;;;22.13;10.43;;;;;;;;;;5010139;28;20027;-80
2022/11/21 07:37:17;;;;;;;31.02;10.38;;;;;;;;;;5005088;28;20026;-79
2022/11/21 07:39:43;;;;;;;27.88;10.18;;;;;;;;;;5008930;28;20086;-79
2022/11/21 07:42:09;;;;;;;28.48;10.15;;;;;;;;;;4997708;28;20472;-78
2022/11/21 07:44:35;;;;;;;21.85;9.30;;;;;;;;;;5014453;28;20509;-77
2022/11/21 07:47:01;;;;;;;23.35;9.68;;;;;;;;;;5000405;28;20097;-77
2022/11/21 07:49:27;;;;;;;26.35;10.48;;;;;;;;;;5008685;28;20097;-78
2022/11/21 07:51:53;;;;;;;30.52;11.20;;;;;;;;;;4999803;28;20026;-77
2022/11/21 07:54:19;;;;;;;36.85;11.52;;;;;;;;;;5008474;28;20038;-77
2022/11/21 07:56:45;;;;;;;29.05;10.88;;;;;;;;;;5001986;28;20484;-78
2022/11/21 07:59:11;;;;;;;26.50;9.90;;;;;;;;;;5002500;28;20059;-78
2022/11/21 08:01:37;;;;;;;29.13;10.43;;;;;;;;;;5011661;28;20030;-78
2022/11/21 08:04:03;;;;;;;36.72;11.07;;;;;;;;;;5003251;28;20041;-78
2022/11/21 08:06:29;;;;;;;44.50;11.50;;;;;;;;;;5005812;28;20219;-78
2022/11/21 08:08:56;;;;;;;50.97;11.38;;;;;;;;;;5007626;28;20109;-78
2022/11/21 08:11:22;;;;;;;21.92;10.48;;;;;;;;;;5007990;28;20037;-78
2022/11/21 08:13:48;;;;;;;31.33;12.05;;;;;;;;;;4995060;28;20018;-78
2022/11/21 08:16:14;;;;;;;24.25;10.77;;;;;;;;;;4999004;28;20108;-78
2022/11/21 08:18:40;;;;;;;28.80;11.70;;;;;;;;;;5002284;28;20145;-78
2022/11/21 08:21:06;;;;;;;23.40;11.18;;;;;;;;;;4997643;28;20030;-77
2022/11/21 08:23:32;;;;;;;25.83;10.88;;;;;;;;;;5002100;28;20460;-77
2022/11/21 08:25:58;;;;;;;26.55;10.75;;;;;;;;;;5003111;28;20026;-77
2022/11/21 08:28:24;;;;;;;20.45;8.77;;;;;;;;;;5000350;28;20026;-77
2022/11/21 08:30:50;;;;;;;31.83;11.57;;;;;;;;;;5003638;28;20037;-77
2022/11/21 08:33:16;;;;;;;30.30;11.75;;;;;;;;;;5010293;28;20026;-77
2022/11/21 08:35:42;;;;;;;30.35;12.05;;;;;;;;;;5006471;28;20080;-78
2022/11/21 08:38:08;;;;;;;34.58;11.10;;;;;;;;;;5002613;28;20044;-77
2022/11/21 08:40:35;;;;;;;26.90;12.43;;;;;;;;;;5004009;28;20037;-77
2022/11/21 08:43:05;;;;;;;26.92;10.48;;;;;;;;;;5001754;28;20558;-77
2022/11/21 08:45:32;;;;;;;26.92;10.93;;;;;;;;;;5006247;28;20473;-78
2022/11/21 08:47:58;;;;;;;21.95;11.27;;;;;;;;;;5009721;28;20036;-78
2022/11/21 08:50:26;;;;;;;22.67;10.88;;;;;;;;;;5002051;28;20049;-78
2022/11/21 08:52:52;;;;;;;23.73;10.68;;;;;;;;;;5005390;28;20080;-78
2022/11/21 08:55:19;;;;;;;22.80;10.40;;;;;;;;;;5001107;28;20030;-78
2022/11/21 08:57:45;;;;;;;17.35;8.35;;;;;;;;;;5008433;28;20038;-78
2022/11/21 09:00:11;;;;;;;18.35;9.35;;;;;;;;;;5000125;28;20041;-78
2022/11/21 09:02:38;;;;;;;15.10;7.47;;;;;;;;;;4997377;28;20030;-78
2022/11/21 09:05:04;;;;;;;16.75;7.50;;;;;;;;;;5004627;28;20046;-78
2022/11/21 09:07:30;;;;;;;17.13;8.07;;;;;;;;;;5005306;28;20363;-79
2022/11/21 09:09:56;;;;;;;12.20;6.07;;;;;;;;;;5002061;28;20492;-78
2022/11/21 09:12:22;;;;;;;13.45;7.10;;;;;;;;;;5000696;28;20104;-78
2022/11/21 09:20:17;;;;;;;16.05;7.55;;;;;;;;;;5011875;28;20065;-78
2022/11/21 09:22:43;;;;;;;18.77;8.65;;;;;;;;;;4999654;28;20474;-78
2022/11/21 09:25:09;;;;;;;17.05;8.23;;;;;;;;;;5008053;28;20033;-79
2022/11/21 09:27:35;;;;;;;16.38;8.48;;;;;;;;;;5005691;28;20030;-79
2022/11/21 09:30:01;;;;;;;18.23;8.07;;;;;;;;;;5001434;28;20034;-79
2022/11/21 09:32:27;;;;;;;19.52;8.80;;;;;;;;;;5003198;28;20067;-79
2022/11/21 09:34:53;;;;;;;16.13;7.80;;;;;;;;;;4999829;28;20049;-79
2022/11/21 09:37:19;;;;;;;16.42;7.90;;;;;;;;;;5000619;28;20097;-79
2022/11/21 09:39:45;;;;;;;15.00;7.45;;;;;;;;;;4994571;28;20042;-78
2022/11/21 09:42:30;;;;;;;16.88;9.00;;;;;;;;;;5008005;28;20034;-78
2022/11/21 09:45:17;;;;;;;17.38;7.97;;;;;;;;;;5001662;28;20029;-78
2022/11/21 09:47:48;;;;;;;19.42;8.50;;;;;;;;;;5001364;28;20407;-78
2022/11/21 09:50:14;;;;;;;18.35;8.95;;;;;;;;;;4997368;28;20026;-78
2022/11/21 09:52:53;;;;;;;16.30;7.13;;;;;;;;;;4993379;28;20037;-78
2022/11/21 09:55:35;;;;;;;16.15;7.82;;;;;;;;;;5000347;28;20030;-78
2022/11/21 09:58:05;;;;;;;17.88;7.90;;;;;;;;;;5002005;28;20030;-79
2022/11/21 10:00:31;;;;;;;19.77;9.20;;;;;;;;;;4998151;28;20099;-78
2022/11/21 10:02:57;;;;;;;19.52;8.48;;;;;;;;;;4995057;28;20396;-78
2022/11/21 10:05:32;;;;;;;17.00;8.48;;;;;;;;;;4998734;28;20026;-78
2022/11/21 10:08:01;;;;;;;16.02;7.50;;;;;;;;;;4995299;28;20034;-78
2022/11/21 10:10:34;;;;;;;18.52;8.57;;;;;;;;;;4998595;28;20031;-79
2022/11/21 10:13:03;;;;;;;16.50;8.43;;;;;;;;;;5003393;28;20041;-78
2022/11/21 10:15:37;;;;;;;18.35;8.85;;;;;;;;;;5004236;28;20101;-78
2022/11/21 10:18:21;;;;;;;14.05;7.35;;;;;;;;;;5003012;28;20133;-79
2022/11/21 10:20:50;;;;;;;15.07;7.22;;;;;;;;;;5008157;28;20030;-78
2022/11/21 10:23:24;;;;;;;16.65;8.38;;;;;;;;;;5003291;28;20040;-79
2022/11/21 10:25:55;;;;;;;12.90;7.13;;;;;;;;;;5004470;28;20082;-79
2022/11/21 10:28:26;;;;;;;14.98;7.82;;;;;;;;;;4997804;28;20485;-79
2022/11/21 10:30:54;;;;;;;13.88;6.85;;;;;;;;;;4995424;28;20025;-79
2022/11/21 10:33:25;;;;;;;14.68;7.57;;;;;;;;;;5013084;28;20029;-79
2022/11/21 10:35:54;;;;;;;13.93;8.00;;;;;;;;;;5000403;28;20473;-79
2022/11/21 10:38:22;;;;;;;12.88;7.03;;;;;;;;;;5000285;28;20021;-79
2022/11/21 10:40:54;;;;;;;14.02;7.53;;;;;;;;;;4999570;28;20424;-79
2022/11/21 10:46:12;;;;;;;13.52;7.38;;;;;;;;;;5001466;28;20038;-78
2022/11/21 10:48:38;;;;;;;12.95;7.07;;;;;;;;;;5005610;28;20022;-78
2022/11/21 10:51:13;;;;;;;14.38;7.40;;;;;;;;;;5002477;28;20061;-78
2022/11/21 10:56:28;;;;;;;15.15;8.05;;;;;;;;;;5007633;28;20216;-78
2022/11/21 10:58:56;;;;;;;17.45;8.68;;;;;;;;;;5010638;28;20026;-78
2022/11/21 11:01:26;;;;;;;15.70;8.45;;;;;;;;;;5007563;28;20053;-78
2022/11/21 11:04:04;;;;;;;17.27;9.18;;;;;;;;;;5004474;28;20023;-78
2022/11/21 11:06:30;;;;;;;14.43;7.82;;;;;;;;;;5008522;28;20030;-78
2022/11/21 11:08:56;;;;;;;15.88;8.52;;;;;;;;;;5009455;28;20057;-78
2022/11/21 11:11:25;;;;;;;16.13;8.60;;;;;;;;;;5011304;28;20483;-78
2022/11/21 11:13:56;;;;;;;16.50;9.18;;;;;;;;;;5014416;28;20062;-78
2022/11/21 11:16:23;;;;;;;16.38;8.98;;;;;;;;;;5015234;28;20045;-78
2022/11/21 11:18:58;;;;;;;16.75;9.05;;;;;;;;;;5006225;28;20058;-78
2022/11/21 11:21:28;;;;;;;17.60;9.07;;;;;;;;;;5009287;28;20042;-79
2022/11/21 11:24:05;;;;;;;18.60;8.80;;;;;;;;;;5002513;28;20458;-79
2022/11/21 11:26:31;;;;;;;16.77;9.07;;;;;;;;;;5007513;28;20030;-79
2022/11/21 11:29:13;;;;;;;16.38;8.80;;;;;;;;;;5006796;28;20488;-78
2022/11/21 11:31:43;;;;;;;17.67;9.77;;;;;;;;;;5011713;28;20133;-79
2022/11/21 11:34:13;;;;;;;21.80;10.43;;;;;;;;;;5006367;28;20101;-79
2022/11/21 11:36:46;;;;;;;20.20;9.50;;;;;;;;;;5006488;28;20030;-79
2022/11/21 11:39:26;;;;;;;18.45;10.45;;;;;;;;;;5001545;28;20542;-78
2022/11/21 11:47:31;;;;;;;17.58;9.95;;;;;;;;;;5012650;28;20048;-78
2022/11/21 11:50:18;;;;;;;17.10;9.27;;;;;;;;;;4997132;28;20153;-78
2022/11/21 11:53:07;;;;;;;19.38;10.13;;;;;;;;;;5009074;28;20073;-78
2022/11/21 11:55:40;;;;;;;20.60;9.88;;;;;;;;;;5004285;28;20073;-78
2022/11/21 11:58:15;;;;;;;20.42;9.82;;;;;;;;;;5003275;28;20389;-77
2022/11/21 12:00:44;;;;;;;16.80;9.88;;;;;;;;;;5004811;28;20508;-78
2022/11/21 12:03:14;;;;;;;18.67;10.05;;;;;;;;;;5000660;28;20034;-78
2022/11/21 12:05:51;;;;;;;18.80;10.38;;;;;;;;;;4999518;28;20053;-78
2022/11/21 12:08:20;;;;;;;19.42;10.07;;;;;;;;;;4999276;28;20027;-78
2022/11/21 12:13:43;;;;;;;19.30;10.48;;;;;;;;;;5001823;28;20401;-78
2022/11/21 12:16:12;;;;;;;19.55;9.57;;;;;;;;;;5008158;28;20037;-78
2022/11/21 12:18:50;;;;;;;21.65;11.48;;;;;;;;;;5003571;28;20050;-79
2022/11/21 12:21:20;;;;;;;18.58;10.27;;;;;;;;;;5001995;28;20101;-78
2022/11/21 12:23:46;;;;;;;20.10;10.23;;;;;;;;;;5002792;28;20018;-78
2022/11/21 12:26:17;;;;;;;18.02;9.85;;;;;;;;;;5007131;28;20102;-78
2022/11/21 12:28:50;;;;;;;18.10;10.07;;;;;;;;;;4998290;28;20048;-77
2022/11/21 12:31:25;;;;;;;20.08;10.73;;;;;;;;;;5000666;28;20033;-78
2022/11/21 12:33:57;;;;;;;18.08;9.88;;;;;;;;;;4995665;28;20037;-78
2022/11/21 12:36:31;;;;;;;21.00;11.13;;;;;;;;;;4995810;28;20030;-79
2022/11/21 12:39:00;;;;;;;18.00;9.10;;;;;;;;;;4998075;28;20033;-79
2022/11/21 12:44:33;;;;;;;18.08;9.80;;;;;;;;;;5007196;28;20508;-78
2022/11/21 12:46:59;;;;;;;20.02;10.23;;;;;;;;;;4998525;28;20097;-79
2022/11/21 12:55:36;;;;;;;18.83;10.35;;;;;;;;;;4999358;28;20041;-78
2022/11/21 12:58:21;;;;;;;17.98;9.13;;;;;;;;;;5007142;28;20041;-78
2022/11/21 13:00:47;;;;;;;19.98;10.55;;;;;;;;;;4999164;28;20038;-78
2022/11/21 13:03:32;;;;;;;18.60;9.68;;;;;;;;;;5004746;28;20033;-78
2022/11/21 13:05:58;;;;;;;17.40;10.25;;;;;;;;;;4995493;28;20023;-78
2022/11/21 13:08:26;;;;;;;16.73;8.73;;;;;;;;;;5008335;28;20105;-78
2022/11/21 13:11:57;;;;;;;16.52;9.10;;;;;;;;;;5007906;28;20484;-78
2022/11/21 13:13:45;;;;;;;20.30;10.30;;;;;;;;;;5002512;28;20038;-78
2022/11/21 13:16:35;;;;;;;19.42;10.05;;;;;;;;;;5002556;28;20431;-78
2022/11/21 13:19:03;;;;;;;18.70;10.25;;;;;;;;;;5001906;28;20046;-78
2022/11/21 13:21:41;;;;;;;18.23;9.70;;;;;;;;;;5006341;28;20438;-79
2022/11/21 13:24:07;;;;;;;17.90;9.52;;;;;;;;;;5008389;28;20079;-78
2022/11/21 13:26:33;;;;;;;18.45;9.55;;;;;;;;;;4994445;28;20042;-78
2022/11/21 13:29:15;;;;;;;20.83;9.55;;;;;;;;;;5013250;28;20024;-78
2022/11/21 13:31:42;;;;;;;19.48;9.88;;;;;;;;;;5012705;28;20056;-78
2022/11/21 13:34:26;;;;;;;18.77;10.70;;;;;;;;;;5007361;28;20110;-78
2022/11/21 13:36:52;;;;;;;20.10;10.82;;;;;;;;;;5005654;28;20022;-78
2022/11/21 13:39:25;;;;;;;19.40;10.38;;;;;;;;;;4998296;28;20034;-78
2022/11/21 13:44:42;;;;;;;;;;;;;;;;;;5008499;28;20410;-78
2022/11/21 13:47:11;;;;;;;25.20;9.85;;;;;;;;;;5004116;28;19910;-78
2022/11/21 13:49:43;;;;;;;21.88;11.05;;;;;;;;;;5012063;28;20038;-79
2022/11/21 13:52:27;;;;;;;21.90;10.57;;;;;;;;;;4998079;28;20050;-78
2022/11/21 13:55:02;;;;;;;21.58;11.18;;;;;;;;;;5006708;28;20027;-78
2022/11/21 13:57:41;;;;;;;22.45;11.10;;;;;;;;;;4995848;28;20031;-78
2022/11/21 14:00:12;;;;;;;22.75;11.30;;;;;;;;;;5007243;28;20049;-78
2022/11/21 14:02:38;;;;;;;22.35;9.65;;;;;;;;;;5011016;28;20129;-76
2022/11/21 14:05:23;;;;;;;23.25;10.43;;;;;;;;;;5003705;28;20106;-76
2022/11/21 14:07:50;;;;;;;23.92;10.93;;;;;;;;;;5001108;28;20034;-76
2022/11/21 14:10:25;;;;;;;23.92;10.77;;;;;;;;;;5011474;28;20022;-76
2022/11/21 14:12:52;;;;;;;22.52;10.82;;;;;;;;;;4994533;28;20065;-77
2022/11/21 14:15:28;;;;;;;25.15;11.82;;;;;;;;;;4992828;28;20393;-78
2022/11/21 14:17:55;;;;;;;27.17;12.50;;;;;;;;;;5000894;28;20064;-79
2022/11/21 14:20:46;;;;;;;22.17;11.02;;;;;;;;;;5003738;28;20026;-78
2022/11/21 14:23:15;;;;;;;21.70;11.13;;;;;;;;;;4995772;28;20030;-78
2022/11/21 14:25:44;;;;;;;24.00;11.38;;;;;;;;;;5003110;28;20040;-77
2022/11/21 14:28:16;;;;;;;24.50;11.82;;;;;;;;;;4998225;28;20062;-77
2022/11/21 14:30:43;;;;;;;20.65;11.50;;;;;;;;;;4995679;28;20042;-77
2022/11/21 14:33:26;;;;;;;21.45;10.90;;;;;;;;;;5000481;28;20504;-77
2022/11/21 14:36:00;;;;;;;22.70;10.60;;;;;;;;;;4998063;28;20062;-77
2022/11/21 14:38:27;;;;;;;24.02;10.07;;;;;;;;;;4998040;28;20030;-77
2022/11/21 14:41:33;;;;;;;23.30;11.20;;;;;;;;;;5016424;28;20061;-77
2022/11/21 14:44:00;;;;;;;28.15;11.27;;;;;;;;;;4976304;28;20030;-77
2022/11/21 14:46:27;;;;;;;19.85;9.68;;;;;;;;;;4976437;28;20031;-78
2022/11/21 14:48:53;;;;;;;28.92;10.90;;;;;;;;;;4977924;28;20046;-77
2022/11/21 14:51:23;;;;;;;22.35;9.68;;;;;;;;;;5000729;28;20018;-78
2022/11/21 14:53:51;;;;;;;32.45;11.38;;;;;;;;;;4996373;28;20034;-78
2022/11/21 14:56:28;;;;;;;22.52;11.05;;;;;;;;;;4995596;28;20050;-78
2022/11/21 14:58:55;;;;;;;19.80;9.02;;;;;;;;;;4996876;28;20043;-78
2022/11/21 15:01:22;;;;;;;20.45;9.23;;;;;;;;;;5003329;28;20030;-78
2022/11/21 15:03:59;;;;;;;25.15;10.40;;;;;;;;;;5001370;28;20108;-78
2022/11/21 15:06:26;;;;;;;27.52;11.10;;;;;;;;;;5001556;28;20543;-78